Time;durP1;ratioP1;P1;durP2;ratioP2;P2;SDS_P1;SDS_P2;PMS_P1;PMS_P2;Temp;Humidity;BMP_temperature;BMP_pressure;BME280_temperature;BME280_humidity;BME280_pressure;Samples;Min_cycle;Max_cycle;Signal;HPM_P1;HPM_P2
2023/12/06 00:01:59;;;;;;;3.50;3.20;;;;;;;1.90;67.78;99316.75;10096716;29;20575;-37
2023/12/06 00:07:00;;;;;;;3.80;3.27;;;;;;;1.67;69.51;99273.97;10081246;29;20244;-37
2023/12/06 00:12:02;;;;;;;3.70;3.40;;;;;;;1.95;69.36;99222.97;10072670;29;20249;-37
2023/12/06 00:17:04;;;;;;;3.80;3.50;;;;;;;1.18;70.19;99385.41;10096276;29;20241;-37
2023/12/06 00:22:06;;;;;;;4.40;4.00;;;;;;;2.79;66.18;99200.16;10095894;29;20332;-37
2023/12/06 00:27:08;;;;;;;3.53;3.23;;;;;;;1.89;68.48;99317.72;10093584;29;20245;-38
2023/12/06 00:32:09;;;;;;;3.90;3.50;;;;;;;2.74;67.32;99197.13;10097404;29;20679;-37
2023/12/06 00:37:11;;;;;;;3.40;3.10;;;;;;;1.49;69.55;99385.44;10093951;29;20237;-37
2023/12/06 00:42:17;;;;;;;4.37;3.97;;;;;;;3.20;65.35;99234.97;10072611;29;20347;-37
2023/12/06 00:47:18;;;;;;;4.77;4.37;;;;;;;2.84;66.70;99229.63;10089658;29;20249;-36
2023/12/06 00:52:21;;;;;;;3.53;3.33;;;;;;;1.18;69.55;99490.84;10090031;29;20249;-36
2023/12/06 00:57:23;;;;;;;3.77;3.43;;;;;;;2.57;67.28;99270.06;10083714;29;20250;-37
2023/12/06 01:02:25;;;;;;;5.13;4.53;;;;;;;3.00;66.97;99191.16;10099895;29;20248;-37
2023/12/06 01:07:27;;;;;;;4.53;3.43;;;;;;;2.39;67.57;99308.78;10092657;29;20719;-37
2023/12/06 01:12:30;;;;;;;4.03;3.63;;;;;;;2.49;66.58;99347.38;10090425;29;20690;-37
2023/12/06 01:17:32;;;;;;;4.17;3.80;;;;;;;2.40;65.99;99408.97;10088174;29;20234;-39
2023/12/06 01:22:34;;;;;;;5.27;3.33;;;;;;;3.00;66.36;99279.19;10078222;29;20626;-37
2023/12/06 01:27:36;;;;;;;3.63;3.37;;;;;;;3.12;66.04;99253.41;10093038;29;20249;-37
2023/12/06 01:32:37;;;;;;;8.07;4.70;;;;;;;2.82;66.85;99297.63;10097891;29;20234;-37
2023/12/06 01:37:39;;;;;;;4.23;3.40;;;;;;;3.47;64.69;99288.81;10086861;29;20245;-36
2023/12/06 01:42:43;;;;;;;5.10;3.90;;;;;;;2.93;65.19;99386.50;10093504;29;20325;-37
2023/12/06 01:47:47;;;;;;;4.57;4.17;;;;;;;2.58;66.06;99432.84;10096959;29;20270;-39
2023/12/06 01:52:49;;;;;;;5.20;4.70;;;;;;;3.02;64.63;99449.06;10092116;29;20245;-36
2023/12/06 01:57:52;;;;;;;4.27;3.87;;;;;;;2.45;67.47;99390.06;10088227;29;20328;-38
2023/12/06 02:02:54;;;;;;;4.43;4.03;;;;;;;3.78;64.86;99267.25;10098503;29;20238;-37
2023/12/06 02:07:56;;;;;;;5.30;3.73;;;;;;;3.68;65.30;99282.38;10068892;29;20294;-39
2023/12/06 02:12:58;;;;;;;4.60;4.20;;;;;;;3.76;63.96;99345.97;10090548;29;20678;-37
2023/12/06 02:18:02;;;;;;;5.07;3.60;;;;;;;2.79;65.89;99496.13;10090169;29;20288;-37
2023/12/06 02:23:06;;;;;;;4.40;4.00;;;;;;;3.77;63.54;99379.41;10095392;29;20240;-37
2023/12/06 02:28:08;;;;;;;3.80;3.50;;;;;;;2.44;67.26;99459.72;10090813;29;20242;-37
2023/12/06 02:33:10;;;;;;;5.57;3.80;;;;;;;2.58;67.15;99443.41;10086620;29;20290;-37
2023/12/06 02:38:14;;;;;;;6.83;4.00;;;;;;;3.96;64.44;99306.94;10099791;29;20806;-37
2023/12/06 02:43:17;;;;;;;5.90;3.87;;;;;;;3.38;65.27;99388.41;10102111;29;20575;-37
2023/12/06 02:48:19;;;;;;;4.40;3.70;;;;;;;2.96;66.53;99395.97;10094030;29;20781;-37
2023/12/06 02:53:21;;;;;;;6.00;4.03;;;;;;;3.01;66.68;99388.44;10100646;29;20233;-37
2023/12/06 02:58:22;;;;;;;5.10;4.60;;;;;;;2.67;66.42;99492.78;10093577;29;20746;-37
2023/12/06 03:03:24;;;;;;;4.83;4.00;;;;;;;3.31;65.09;99416.44;10087890;29;20320;-37
2023/12/06 03:08:26;;;;;;;5.07;4.57;;;;;;;2.55;65.67;99602.19;10102617;29;20240;-37
2023/12/06 03:13:28;;;;;;;4.77;4.10;;;;;;;2.21;67.96;99533.88;10097300;29;20253;-36
2023/12/06 03:18:31;;;;;;;6.60;4.23;;;;;;;3.26;65.16;99455.69;10092607;29;20791;-36
2023/12/06 03:23:33;;;;;;;5.17;4.60;;;;;;;2.85;66.55;99455.91;10096000;29;20276;-37
2023/12/06 03:28:34;;;;;;;4.73;4.27;;;;;;;2.72;67.44;99407.78;10093591;29;20328;-38
2023/12/06 03:33:36;;;;;;;4.90;4.50;;;;;;;2.88;65.64;99500.53;10092512;29;20731;-37
2023/12/06 03:38:39;;;;;;;4.47;4.07;;;;;;;3.53;66.47;99325.25;10094731;29;20233;-37
2023/12/06 03:43:41;;;;;;;4.20;3.80;;;;;;;2.88;66.99;99399.28;10094443;29;20344;-37
2023/12/06 03:49:03;;;;;;;4.27;3.87;;;;;;;2.52;65.66;99598.03;10103484;29;20238;-37
2023/12/06 03:54:05;;;;;;;4.83;3.83;;;;;;;3.91;63.66;99418.59;10104569;29;20692;-37
2023/12/06 03:59:06;;;;;;;5.17;4.57;;;;;;;3.81;64.73;99373.66;10100361;29;20234;-37
2023/12/06 04:04:08;;;;;;;5.40;3.83;;;;;;;2.16;67.03;99612.66;10076293;29;20622;-36
2023/12/06 04:09:10;;;;;;;5.10;4.10;;;;;;;3.25;65.50;99454.84;10096130;29;20234;-37
2023/12/06 04:14:12;;;;;;;5.43;4.17;;;;;;;3.99;63.09;99426.63;10114247;29;20237;-38
2023/12/06 04:19:15;;;;;;;7.07;4.67;;;;;;;3.27;65.49;99465.28;10093537;29;20274;-37
2023/12/06 04:24:17;;;;;;;5.87;4.07;;;;;;;3.08;66.04;99443.22;10092726;29;20238;-37
2023/12/06 04:29:19;;;;;;;5.27;4.20;;;;;;;2.80;65.08;99607.94;10092112;29;20325;-37
2023/12/06 04:34:21;;;;;;;5.20;4.70;;;;;;;3.30;65.66;99456.25;10088478;29;20274;-37
2023/12/06 04:39:22;;;;;;;4.40;4.00;;;;;;;4.31;63.19;99366.97;10099249;29;20249;-38
2023/12/06 04:44:26;;;;;;;5.00;4.33;;;;;;;3.60;62.78;99580.34;10096873;29;20241;-38
2023/12/06 04:49:28;;;;;;;4.70;4.00;;;;;;;3.33;63.68;99596.13;10091629;29;20242;-37
2023/12/06 04:54:31;;;;;;;4.30;3.90;;;;;;;3.93;63.31;99461.63;10080163;29;20249;-37
2023/12/06 04:59:33;;;;;;;5.00;4.30;;;;;;;3.62;64.18;99492.88;10091464;29;20298;-37
2023/12/06 05:04:34;;;;;;;4.53;3.47;;;;;;;2.64;66.29;99600.56;10085631;29;20619;-37
2023/12/06 05:09:36;;;;;;;4.37;4.03;;;;;;;2.54;66.39;99619.88;10084684;29;20734;-37
2023/12/06 05:14:38;;;;;;;4.67;4.27;;;;;;;3.72;63.37;99532.53;10089607;29;20248;-35
2023/12/06 05:19:40;;;;;;;4.47;4.07;;;;;;;3.33;64.56;99569.66;10088450;29;20233;-36
2023/12/06 05:24:41;;;;;;;4.83;4.33;;;;;;;3.03;65.46;99566.25;10093256;29;20661;-35
2023/12/06 05:29:44;;;;;;;6.37;4.63;;;;;;;3.57;65.52;99450.13;10087576;29;20237;-35
2023/12/06 05:34:46;;;;;;;7.47;5.43;;;;;;;2.76;65.06;99640.91;10075472;29;20245;-35
2023/12/06 05:39:48;;;;;;;6.17;5.57;;;;;;;3.20;64.97;99554.13;10090088;29;20268;-36
2023/12/06 05:44:50;;;;;;;6.33;5.67;;;;;;;4.02;63.27;99463.38;10091053;29;20260;-35
2023/12/06 05:49:52;;;;;;;6.33;5.63;;;;;;;3.89;62.38;99552.09;10090726;29;20250;-35
2023/12/06 05:54:53;;;;;;;8.10;6.47;;;;;;;3.95;62.67;99525.88;10088075;29;20796;-37
2023/12/06 05:59:55;;;;;;;7.57;6.53;;;;;;;2.93;63.82;99671.97;10095970;29;20320;-38
2023/12/06 06:04:57;;;;;;;8.30;6.67;;;;;;;3.19;63.19;99627.34;10100909;29;20740;-35
2023/12/06 06:09:59;;;;;;;10.97;8.57;;;;;;;3.67;61.99;99587.72;10099891;29;20237;-36
2023/12/06 06:15:08;;;;;;;11.93;8.83;;;;;;;4.30;61.31;99492.47;10091079;29;20251;-35
2023/12/06 06:20:10;;;;;;;11.97;9.20;;;;;;;3.14;62.83;99644.56;10086754;29;20317;-35
2023/12/06 06:25:39;;;;;;;11.00;9.40;;;;;;;3.94;61.18;99569.19;10067107;29;20260;-35
2023/12/06 06:31:08;;;;;;;15.97;12.23;;;;;;;3.49;61.59;99637.88;10055124;29;20285;-35
2023/12/06 06:36:10;;;;;;;13.33;9.43;;;;;;;3.18;62.68;99653.91;10087555;29;20788;-35
2023/12/06 06:41:40;;;;;;;11.97;9.33;;;;;;;2.89;62.74;99729.53;10079266;29;20214;-36
2023/12/06 06:47:09;;;;;;;10.63;8.57;;;;;;;3.41;62.30;99617.41;10060266;29;20213;-35
2023/12/06 06:52:38;;;;;;;12.83;9.73;;;;;;;3.74;60.44;99674.31;10073214;29;20225;-35
2023/12/06 06:58:07;;;;;;;13.70;10.77;;;;;;;2.98;62.22;99700.66;10085415;29;20202;-36
2023/12/06 07:03:37;;;;;;;11.93;10.17;;;;;;;3.51;61.60;99609.47;10080923;29;20225;-36
2023/12/06 07:09:06;;;;;;;14.37;10.77;;;;;;;3.59;60.62;99691.59;10089989;29;20225;-36
2023/12/06 07:14:35;;;;;;;14.40;10.70;;;;;;;2.97;61.78;99707.72;10055378;29;20249;-36
2023/12/06 07:19:37;;;;;;;12.20;9.77;;;;;;;2.48;62.41;99770.13;10095941;29;20229;-35
2023/12/06 07:24:39;;;;;;;14.93;10.67;;;;;;;3.84;59.82;99637.22;10108209;29;20274;-35
2023/12/06 07:29:42;;;;;;;14.00;10.80;;;;;;;3.71;59.24;99713.47;10099448;29;20233;-36
2023/12/06 07:34:44;;;;;;;14.63;11.77;;;;;;;3.59;59.97;99702.19;10095596;29;20237;-36
2023/12/06 07:39:53;;;;;;;13.93;10.93;;;;;;;4.44;58.04;99643.97;10103233;29;20238;-36
2023/12/06 07:44:55;;;;;;;15.73;12.17;;;;;;;3.14;59.93;99824.38;10094135;29;20348;-36
2023/12/06 07:49:57;;;;;;;15.57;12.23;;;;;;;4.15;58.88;99682.84;10101058;29;20724;-38
2023/12/06 07:54:59;;;;;;;13.13;10.97;;;;;;;3.39;60.03;99772.78;10092276;29;20241;-35
2023/12/06 08:00:02;;;;;;;11.93;10.40;;;;;;;3.28;59.17;99838.06;10077039;29;20337;-37
2023/12/06 08:05:04;;;;;;;13.17;11.23;;;;;;;3.47;59.49;99763.19;10080394;29;20337;-36
2023/12/06 08:10:19;;;;;;;13.87;11.23;;;;;;;3.77;59.15;99720.84;10094813;29;20729;-36
2023/12/06 08:15:21;;;;;;;13.60;11.77;;;;;;;3.93;58.38;99715.78;10098941;29;20297;-36
2023/12/06 08:20:24;;;;;;;13.30;11.27;;;;;;;3.93;58.75;99736.13;10104214;29;20264;-36
2023/12/06 08:25:26;;;;;;;12.17;10.60;;;;;;;2.69;60.45;99915.44;10101231;29;20229;-35
2023/12/06 08:30:28;;;;;;;14.50;11.80;;;;;;;3.47;59.35;99791.47;10105729;29;20738;-34
2023/12/06 08:35:30;;;;;;;12.47;10.80;;;;;;;3.99;58.31;99744.34;10106155;29;20290;-36
2023/12/06 08:40:32;;;;;;;12.70;10.97;;;;;;;3.08;59.49;99924.44;10097187;29;20237;-36
2023/12/06 08:45:33;;;;;;;13.37;11.53;;;;;;;3.01;60.85;99848.44;10079488;29;20344;-35
2023/12/06 08:50:35;;;;;;;15.27;11.87;;;;;;;3.11;60.35;99841.38;10102770;29;20324;-36
2023/12/06 08:55:37;;;;;;;16.90;10.63;;;;;;;3.10;60.25;99885.47;10094585;29;20237;-36
2023/12/06 09:00:39;;;;;;;14.23;11.50;;;;;;;3.63;60.28;99749.41;10094462;29;20240;-36
2023/12/06 09:05:41;;;;;;;13.27;10.73;;;;;;;2.25;62.25;99919.97;10090353;29;20285;-36
2023/12/06 09:10:43;;;;;;;14.80;11.07;;;;;;;3.49;60.24;99794.78;10094530;29;20732;-36
2023/12/06 09:15:45;;;;;;;13.47;10.03;;;;;;;2.96;60.13;99911.44;10075185;29;20241;-36
2023/12/06 09:20:46;;;;;;;14.73;12.67;;;;;;;3.32;60.07;99830.69;10094114;29;20240;-35
2023/12/06 09:25:48;;;;;;;13.70;11.33;;;;;;;3.43;59.04;99833.22;10092845;29;20378;-36
2023/12/06 09:30:50;;;;;;;13.10;10.73;;;;;;;3.65;59.01;99791.63;10074515;29;20236;-36
2023/12/06 09:35:52;;;;;;;13.00;10.63;;;;;;;3.88;58.60;99775.44;10088776;29;20245;-37
2023/12/06 09:40:54;;;;;;;14.50;11.30;;;;;;;4.52;57.69;99729.72;10091775;29;20662;-36
2023/12/06 09:45:55;;;;;;;14.10;10.33;;;;;;;3.64;57.92;99915.16;10086584;29;20234;-38
2023/12/06 09:50:57;;;;;;;12.63;11.27;;;;;;;3.59;58.27;99933.25;10091974;29;20235;-36
2023/12/06 09:56:00;;;;;;;12.40;10.03;;;;;;;4.03;57.73;99874.66;10089357;29;20676;-36
2023/12/06 10:01:02;;;;;;;16.43;10.00;;;;;;;4.55;56.94;99835.44;10089450;29;20230;-36
2023/12/06 10:06:05;;;;;;;14.63;11.50;;;;;;;3.64;58.24;100002.50;10088272;29;20296;-36
2023/12/06 10:11:09;;;;;;;13.20;10.23;;;;;;;4.16;58.54;99861.97;10087646;29;20242;-36
2023/12/06 10:16:19;;;;;;;11.27;9.83;;;;;;;4.77;56.52;99860.75;10090088;29;20239;-34
2023/12/06 10:21:22;;;;;;;12.47;10.73;;;;;;;4.10;57.23;99972.91;10058967;29;20234;-37
2023/12/06 10:26:30;;;;;;;12.27;9.63;;;;;;;4.25;57.80;99960.13;10066742;29;20699;-38
2023/12/06 10:31:38;;;;;;;12.57;10.43;;;;;;;5.33;56.42;99807.72;10091944;29;20234;-37
2023/12/06 10:36:40;;;;;;;12.27;10.20;;;;;;;4.18;57.92;99942.13;10093375;29;20261;-37
2023/12/06 10:41:47;;;;;;;12.40;10.37;;;;;;;4.98;56.96;99858.88;10091871;29;20670;-35
2023/12/06 10:46:49;;;;;;;12.80;10.47;;;;;;;4.02;58.31;99993.00;10094110;29;20246;-37
2023/12/06 10:52:05;;;;;;;11.67;10.00;;;;;;;3.78;58.45;100026.91;10088554;29;20235;-35
2023/12/06 10:57:07;;;;;;;12.67;9.93;;;;;;;4.17;58.21;99935.16;10089364;29;20704;-36
2023/12/06 11:06:36;;;;;;;13.53;10.20;;;;;;;2.31;64.70;99790.91;10449884;28;21217;-71
2023/12/06 11:11:56;;;;;;;11.60;10.20;;;;;;;1.90;65.65;99812.88;10315803;28;20268;-71
2023/12/06 11:17:39;;;;;;;14.97;10.93;;;;;;;1.98;65.28;99828.91;10315095;28;20723;-71
2023/12/06 11:22:42;;;;;;;15.60;11.67;;;;;;;1.50;66.12;99872.34;10331387;28;20615;-71
2023/12/06 11:27:59;;;;;;;12.43;11.13;;;;;;;1.66;65.73;99844.72;10325772;28;20230;-71
2023/12/06 11:33:00;;;;;;;15.03;13.27;;;;;;;2.24;64.58;99816.16;10322794;28;20318;-71
2023/12/06 11:38:03;;;;;;;13.20;10.27;;;;;;;1.97;64.97;99814.84;10310396;28;20229;-71
2023/12/06 11:43:05;;;;;;;14.77;11.03;;;;;;;2.34;63.94;99861.13;10316056;28;20240;-71
2023/12/06 11:48:12;;;;;;;14.83;11.47;;;;;;;2.12;64.66;99849.69;10312307;28;20333;-71
2023/12/06 11:53:16;;;;;;;14.50;10.57;;;;;;;3.03;63.02;99807.66;10312228;28;20229;-71
2023/12/06 11:58:17;;;;;;;12.63;10.63;;;;;;;2.51;63.13;99857.88;10315161;28;20611;-71
2023/12/06 12:03:19;;;;;;;12.00;10.23;;;;;;;1.50;65.69;99935.66;10313435;28;20621;-71
2023/12/06 12:08:21;;;;;;;14.53;11.57;;;;;;;2.64;63.56;99796.09;10301923;28;20288;-71
2023/12/06 12:13:23;;;;;;;13.00;10.73;;;;;;;2.20;63.03;99946.78;10315650;28;20245;-71
2023/12/06 12:18:27;;;;;;;12.87;9.93;;;;;;;2.45;63.93;99807.38;10290699;28;20296;-71
2023/12/06 12:23:29;;;;;;;14.60;11.10;;;;;;;2.43;63.46;99836.56;10288509;28;20729;-71
2023/12/06 12:28:30;;;;;;;11.73;9.60;;;;;;;3.26;61.33;99815.34;10288097;28;20240;-70
2023/12/06 12:33:32;;;;;;;15.20;11.23;;;;;;;2.47;63.14;99890.00;10288494;28;20714;-71
2023/12/06 12:38:38;;;;;;;13.33;10.73;;;;;;;2.53;63.87;99860.41;10289061;28;20384;-71
2023/12/06 12:43:40;;;;;;;15.77;11.53;;;;;;;2.63;62.68;99918.59;10281322;28;20239;-71
2023/12/06 12:48:42;;;;;;;12.73;9.97;;;;;;;2.83;62.46;99903.69;10284225;28;20227;-71
2023/12/06 12:53:46;;;;;;;12.90;10.87;;;;;;;3.38;61.24;99829.31;10286460;28;20231;-71
2023/12/06 12:58:48;;;;;;;13.73;10.30;;;;;;;2.19;62.69;100032.22;10282779;28;20320;-69
2023/12/06 13:03:50;;;;;;;11.70;10.27;;;;;;;2.44;63.18;99904.28;10285573;28;20722;-69
2023/12/06 13:08:57;;;;;;;14.43;9.50;;;;;;;1.58;64.50;100015.00;10289502;28;20611;-72
2023/12/06 13:14:01;;;;;;;13.17;11.13;;;;;;;2.50;63.39;99839.50;10284466;28;20608;-69
2023/12/06 13:19:03;;;;;;;12.43;9.20;;;;;;;2.96;62.81;99781.91;10280597;28;20231;-72
2023/12/06 13:24:05;;;;;;;10.53;9.37;;;;;;;2.19;63.25;99933.69;10287120;28;20916;-71
2023/12/06 13:29:07;;;;;;;13.30;9.67;;;;;;;2.05;64.81;99861.75;10289985;28;20240;-71
2023/12/06 13:34:08;;;;;;;12.97;9.60;;;;;;;1.92;64.59;99900.66;10284226;28;20230;-71
2023/12/06 13:39:11;;;;;;;11.70;9.90;;;;;;;2.00;64.31;99900.06;10284335;28;20321;-69
2023/12/06 13:44:13;;;;;;;11.47;9.23;;;;;;;2.28;64.31;99882.75;10289680;28;20258;-72
2023/12/06 13:49:15;;;;;;;11.80;10.17;;;;;;;3.28;62.39;99753.44;10288154;28;20246;-71
2023/12/06 13:54:17;;;;;;;13.63;10.80;;;;;;;2.24;63.04;99992.25;10286255;28;20230;-69
2023/12/06 13:59:19;;;;;;;13.30;10.97;;;;;;;2.96;62.57;99838.25;10285441;28;20672;-69
2023/12/06 14:04:21;;;;;;;11.10;9.23;;;;;;;2.86;62.51;99864.59;10292638;28;20691;-69
2023/12/06 14:09:23;;;;;;;12.43;9.30;;;;;;;2.85;62.26;99891.16;10283517;28;20237;-71
2023/12/06 14:14:26;;;;;;;10.67;8.77;;;;;;;2.03;62.91;99995.66;10297041;28;20592;-69
2023/12/06 14:19:28;;;;;;;10.63;8.67;;;;;;;3.07;61.53;99867.25;10294078;28;20233;-69
2023/12/06 14:24:29;;;;;;;11.93;10.43;;;;;;;2.48;62.35;100002.59;10297323;28;20322;-69
2023/12/06 14:29:31;;;;;;;13.30;10.90;;;;;;;3.68;60.52;99854.84;10294258;28;20262;-69
2023/12/06 14:34:33;;;;;;;12.03;9.83;;;;;;;2.87;62.04;99984.38;10287874;28;20276;-69
2023/12/06 14:40:39;;;;;;;11.53;9.30;;;;;;;2.78;62.42;100001.03;10285894;28;20234;-75
2023/12/06 14:47:12;;;;;;;12.43;9.27;;;;;;;2.66;62.21;100038.06;10335941;28;20221;-74
2023/12/06 14:52:41;;;;;;;12.90;10.40;;;;;;;2.90;62.32;99953.25;10308949;28;20712;-73
2023/12/06 14:57:44;;;;;;;14.33;10.60;;;;;;;2.96;62.77;99919.38;10375172;28;20601;-72
2023/12/06 15:02:46;;;;;;;12.07;9.80;;;;;;;1.34;66.42;100117.97;10373427;28;20288;-72
2023/12/06 15:07:48;;;;;;;12.20;8.60;;;;;;;2.40;63.89;99962.75;10350949;28;20231;-70
2023/12/06 15:12:52;;;;;;;7.97;7.00;;;;;;;2.35;62.13;100037.94;10371876;28;20634;-71
2023/12/06 15:17:54;;;;;;;6.87;6.10;;;;;;;2.22;62.81;100029.34;10368242;28;20233;-71
2023/12/06 15:22:55;;;;;;;8.37;7.00;;;;;;;3.28;60.04;99930.66;10380590;28;20236;-70
2023/12/06 15:27:57;;;;;;;7.53;5.83;;;;;;;3.60;59.10;99949.97;10371137;28;20244;-70
2023/12/06 15:32:59;;;;;;;6.40;5.80;;;;;;;2.60;59.14;100095.88;10375928;28;20603;-71
2023/12/06 15:38:01;;;;;;;7.73;6.47;;;;;;;3.50;57.99;99984.34;10350108;28;20307;-71
2023/12/06 15:43:03;;;;;;;10.20;7.77;;;;;;;3.98;57.60;99959.78;10370816;28;20714;-71
2023/12/06 15:48:08;;;;;;;7.93;6.70;;;;;;;3.24;57.91;100045.63;10354166;28;20604;-71
2023/12/06 15:53:10;;;;;;;16.73;10.30;;;;;;;2.56;58.34;100202.78;10365391;28;20325;-71
2023/12/06 15:58:13;;;;;;;12.70;9.03;;;;;;;3.89;57.04;99984.47;10332179;28;20244;-71
2023/12/06 16:03:14;;;;;;;29.33;18.30;;;;;;;3.36;57.09;100115.16;10337193;28;20245;-72
2023/12/06 16:08:16;;;;;;;14.07;10.77;;;;;;;2.91;59.15;100150.56;10337574;28;20230;-72
2023/12/06 16:13:18;;;;;;;9.97;7.97;;;;;;;3.01;58.70;100144.56;10318408;28;20226;-73
2023/12/06 16:18:20;;;;;;;13.77;10.97;;;;;;;2.68;59.11;100215.00;10331178;28;20226;-71
2023/12/06 16:23:22;;;;;;;18.63;12.73;;;;;;;2.59;60.26;100205.19;10324231;28;20237;-72
2023/12/06 16:28:24;;;;;;;12.33;10.83;;;;;;;2.93;60.20;100163.69;10331546;28;20234;-71
2023/12/06 16:33:27;;;;;;;13.27;9.97;;;;;;;2.26;61.67;100247.31;10343086;28;20400;-71
2023/12/06 16:38:29;;;;;;;13.50;8.93;;;;;;;2.34;63.06;100162.19;10333673;28;20316;-71
2023/12/06 16:43:31;;;;;;;13.23;10.27;;;;;;;2.80;61.39;100110.94;10336608;28;20397;-68
2023/12/06 16:48:33;;;;;;;14.13;11.67;;;;;;;2.74;61.57;100129.94;10353242;28;20589;-68
2023/12/06 16:53:35;;;;;;;13.60;11.07;;;;;;;2.80;61.58;100121.50;10334838;28;20234;-68
2023/12/06 16:58:36;;;;;;;12.40;10.40;;;;;;;2.73;61.92;100144.94;10326968;28;20236;-68
2023/12/06 17:03:38;;;;;;;11.13;9.23;;;;;;;2.33;62.43;100168.44;10351855;23;20625;-36
2023/12/06 17:08:40;;;;;;;10.67;8.67;;;;;;;2.41;62.19;100160.75;10317313;28;20262;-33
2023/12/06 17:13:42;;;;;;;13.10;10.10;;;;;;;2.90;61.78;100119.78;10318346;28;20230;-34
2023/12/06 17:18:44;;;;;;;10.50;9.40;;;;;;;2.67;61.33;100202.75;10304688;28;20285;-33
2023/12/06 17:23:46;;;;;;;12.60;9.53;;;;;;;2.56;62.05;100177.19;10323262;28;20230;-33
2023/12/06 17:28:47;;;;;;;11.50;10.30;;;;;;;2.56;61.17;100221.28;10324744;28;20268;-33
2023/12/06 17:33:49;;;;;;;11.63;8.67;;;;;;;2.45;62.02;100220.31;10329438;28;20237;-34
2023/12/06 17:38:53;;;;;;;10.07;9.03;;;;;;;2.93;61.22;100145.16;10303268;28;20745;-33
2023/12/06 17:43:54;;;;;;;11.20;8.63;;;;;;;2.87;60.81;100175.56;10329202;28;20233;-35
2023/12/06 17:48:56;;;;;;;12.50;9.27;;;;;;;2.90;61.08;100172.66;10324020;28;20703;-33
2023/12/06 17:53:58;;;;;;;12.03;10.73;;;;;;;2.73;60.57;100249.84;10320534;28;20244;-34
2023/12/06 17:59:00;;;;;;;13.87;11.43;;;;;;;2.95;61.40;100152.97;10327131;28;20241;-34
2023/12/06 18:04:02;;;;;;;14.77;11.73;;;;;;;3.19;60.97;100150.97;10321908;28;20725;-33
2023/12/06 18:09:04;;;;;;;14.60;11.20;;;;;;;2.95;60.91;100200.56;10332536;28;20261;-33
2023/12/06 18:14:06;;;;;;;16.00;13.70;;;;;;;3.04;60.79;100186.59;10323021;28;20225;-32
2023/12/06 18:19:08;;;;;;;19.67;16.10;;;;;;;2.46;61.71;100258.13;10322239;28;20320;-33
2023/12/06 18:24:10;;;;;;;25.03;18.10;;;;;;;3.40;59.96;100135.09;10318324;28;20229;-33
2023/12/06 18:29:12;;;;;;;16.97;13.43;;;;;;;2.11;61.58;100356.75;10325888;28;20241;-33
2023/12/06 18:34:14;;;;;;;11.67;10.13;;;;;;;2.31;61.88;100274.19;10325501;28;20277;-32
2023/12/06 18:39:16;;;;;;;14.50;10.47;;;;;;;2.20;61.72;100283.91;10319756;28;20316;-43
2023/12/06 18:44:18;;;;;;;19.93;13.50;;;;;;;2.38;62.26;100234.13;10343459;28;20240;-42
2023/12/06 18:49:19;;;;;;;14.27;12.77;;;;;;;2.59;61.46;100208.66;10351269;28;20560;-40
2023/12/06 18:54:21;;;;;;;16.77;12.67;;;;;;;2.68;60.98;100249.34;10355238;28;20319;-44
2023/12/06 18:59:23;;;;;;;15.40;12.30;;;;;;;3.38;59.86;100149.41;10358688;28;20313;-43
2023/12/06 19:04:25;;;;;;;12.90;10.57;;;;;;;2.75;60.50;100273.50;10361915;28;20229;-42
2023/12/06 19:09:27;;;;;;;14.93;10.67;;;;;;;2.91;60.82;100195.53;10357696;28;20236;-42
2023/12/06 19:14:29;;;;;;;12.33;9.43;;;;;;;2.35;61.94;100269.53;10344919;28;20233;-42
2023/12/06 19:19:31;;;;;;;12.10;10.03;;;;;;;2.33;62.26;100240.59;10363995;28;20233;-41
2023/12/06 19:24:34;;;;;;;18.57;13.90;;;;;;;2.86;61.53;100186.25;10360032;28;20545;-40
2023/12/06 19:29:36;;;;;;;20.03;11.43;;;;;;;2.40;61.87;100275.31;10360237;28;20239;-42
2023/12/06 19:34:39;;;;;;;11.80;9.60;;;;;;;3.03;61.02;100151.38;10373461;28;20723;-43
2023/12/06 19:39:41;;;;;;;12.60;10.20;;;;;;;2.53;62.20;100199.41;10372975;28;20244;-42
2023/12/06 19:44:43;;;;;;;12.20;10.90;;;;;;;2.38;61.40;100292.22;10358985;28;20242;-43
2023/12/06 19:49:45;;;;;;;14.43;11.70;;;;;;;2.10;61.62;100347.16;10373556;28;20244;-42
2023/12/06 19:54:46;;;;;;;14.83;11.57;;;;;;;0.79;64.10;100469.84;10368439;28;20237;-43
2023/12/06 19:59:49;;;;;;;14.03;10.17;;;;;;;1.11;65.47;100256.75;10372059;28;20241;-43
2023/12/06 20:04:51;;;;;;;12.73;10.83;;;;;;;0.75;66.30;100286.56;10367222;28;20634;-42
2023/12/06 20:09:53;;;;;;;13.57;10.90;;;;;;;0.83;66.20;100266.63;10364212;28;20251;-43
2023/12/06 20:14:55;;;;;;;33.37;19.83;;;;;;;2.28;62.47;100147.69;10357497;28;20245;-42
2023/12/06 20:19:56;;;;;;;19.83;14.07;;;;;;;1.15;64.43;100323.25;10358781;28;20245;-43
2023/12/06 20:24:59;;;;;;;21.40;14.80;;;;;;;2.42;61.50;100185.38;10358167;28;20603;-42
2023/12/06 20:30:01;;;;;;;15.40;12.13;;;;;;;2.71;61.08;100175.94;10357609;28;20320;-42
2023/12/06 20:35:03;;;;;;;13.67;10.50;;;;;;;1.45;63.36;100311.50;10355566;28;20605;-41
2023/12/06 20:40:09;;;;;;;13.27;10.50;;;;;;;0.82;65.01;100367.69;10358414;28;20570;-43
2023/12/06 20:45:12;;;;;;;12.97;9.73;;;;;;;0.52;65.75;100359.28;10341515;28;20241;-43
2023/12/06 20:50:14;;;;;;;14.80;11.10;;;;;;;1.71;63.86;100153.88;10360418;28;20241;-43
2023/12/06 20:55:16;;;;;;;14.47;11.43;;;;;;;1.49;63.30;100241.72;10368175;28;20240;-42
2023/12/06 21:00:20;;;;;;;13.13;10.50;;;;;;;1.08;63.77;100314.13;10359323;28;20234;-41
2023/12/06 21:05:22;;;;;;;13.03;10.20;;;;;;;2.14;61.74;100158.50;10364922;28;20265;-41
2023/12/06 21:10:24;;;;;;;12.50;9.43;;;;;;;2.73;60.48;100130.91;10360420;28;20240;-42
2023/12/06 21:15:27;;;;;;;13.53;9.77;;;;;;;0.79;65.17;100291.50;10363492;28;20586;-43
2023/12/06 21:20:29;;;;;;;13.00;10.20;;;;;;;1.74;63.77;100151.00;10364235;28;20569;-42
2023/12/06 21:25:31;;;;;;;12.93;10.63;;;;;;;1.56;62.99;100258.78;10364320;28;20230;-43
2023/12/06 21:30:32;;;;;;;11.70;9.77;;;;;;;2.11;62.16;100204.47;10361979;28;20237;-43
2023/12/06 21:35:34;;;;;;;15.97;11.20;;;;;;;1.12;63.94;100305.03;10365333;28;20260;-42
2023/12/06 21:40:36;;;;;;;15.07;11.23;;;;;;;1.57;64.20;100170.78;10362736;28;20303;-41
2023/12/06 21:45:38;;;;;;;20.20;14.03;;;;;;;2.09;61.79;100189.69;10369235;28;20237;-42
2023/12/06 21:50:40;;;;;;;28.67;19.40;;;;;;;1.08;64.23;100309.69;10362834;28;20230;-43
2023/12/06 21:55:42;;;;;;;19.33;13.93;;;;;;;1.35;63.69;100271.75;10337190;28;20277;-41
2023/12/06 22:00:44;;;;;;;20.20;14.93;;;;;;;1.94;61.62;100252.41;10367270;28;20236;-43
2023/12/06 22:05:46;;;;;;;17.83;13.20;;;;;;;2.01;62.51;100215.84;10367858;28;20380;-42
2023/12/06 22:10:49;;;;;;;16.80;12.87;;;;;;;1.89;61.94;100251.94;10349394;28;20318;-43
2023/12/06 22:15:51;;;;;;;16.03;12.30;;;;;;;1.90;62.36;100227.22;10369558;28;20277;-42
2023/12/06 22:20:53;;;;;;;17.10;12.17;;;;;;;1.03;64.39;100336.38;10364327;28;20259;-43
2023/12/06 22:25:55;;;;;;;14.43;11.10;;;;;;;0.20;65.58;100489.50;10355142;28;20227;-42
2023/12/06 22:30:57;;;;;;;14.03;11.30;;;;;;;1.36;63.98;100278.72;10365092;28;20226;-42
2023/12/06 22:35:59;;;;;;;16.07;11.67;;;;;;;2.12;62.80;100165.69;10356974;28;20236;-43
2023/12/06 22:41:21;;;;;;;15.40;11.77;;;;;;;1.65;62.68;100260.72;10361342;28;20458;-42
2023/12/06 22:46:23;;;;;;;15.80;12.30;;;;;;;1.95;62.37;100231.19;10341669;28;20292;-43
2023/12/06 22:51:26;;;;;;;16.83;12.40;;;;;;;1.86;62.64;100226.63;10353226;28;20237;-42
2023/12/06 22:56:27;;;;;;;14.73;11.70;;;;;;;1.05;63.08;100429.38;10343151;28;20237;-43
2023/12/06 23:01:29;;;;;;;12.87;10.53;;;;;;;2.63;60.14;100210.06;10335131;28;20236;-43
2023/12/06 23:06:31;;;;;;;16.70;11.83;;;;;;;2.24;60.85;100282.72;10357971;28;20233;-43
2023/12/06 23:11:33;;;;;;;14.97;11.63;;;;;;;2.25;61.04;100268.53;10358240;28;20612;-42
2023/12/06 23:16:35;;;;;;;13.70;11.73;;;;;;;1.15;64.54;100312.72;10358861;28;20233;-41
2023/12/06 23:21:45;;;;;;;17.90;12.50;;;;;;;1.16;64.87;100228.25;10343392;28;20610;-46
2023/12/06 23:26:47;;;;;;;14.43;11.53;;;;;;;0.88;65.35;100276.81;10360902;28;20243;-42